Time;durP1;ratioP1;P1;durP2;ratioP2;P2;SDS_P1;SDS_P2;PMS_P1;PMS_P2;Temp;Humidity;BMP_temperature;BMP_pressure;BME280_temperature;BME280_humidity;BME280_pressure;Samples;Min_cycle;Max_cycle;Signal;HPM_P1;HPM_P2
2023/11/05 00:01:50;;;;;;;7.90;2.95;;;29.50;22.70;;;;;;4970459;28;20052;-60
2023/11/05 00:04:16;;;;;;;7.72;2.40;;;29.50;22.30;;;;;;4969879;28;20704;-61
2023/11/05 00:06:43;;;;;;;8.23;2.70;;;29.40;21.90;;;;;;4969358;28;20059;-59
2023/11/05 00:09:10;;;;;;;7.03;2.80;;;29.30;21.50;;;;;;4970775;28;20047;-59
2023/11/05 00:11:36;;;;;;;5.32;2.97;;;29.20;22.90;;;;;;4969741;28;20050;-60
2023/11/05 00:14:03;;;;;;;11.38;3.03;;;29.10;23.00;;;;;;4970566;28;20137;-59
2023/11/05 00:16:30;;;;;;;12.05;3.25;;;29.00;24.40;;;;;;4970065;28;20519;-60
2023/11/05 00:18:56;;;;;;;8.00;3.22;;;28.90;24.80;;;;;;4970328;28;20555;-65
2023/11/05 00:21:22;;;;;;;8.05;3.40;;;28.90;24.00;;;;;;4970164;28;20047;-59
2023/11/05 00:23:49;;;;;;;7.50;3.42;;;28.90;24.00;;;;;;4969770;28;20137;-58
2023/11/05 00:26:15;;;;;;;9.70;3.22;;;28.60;24.80;;;;;;4970187;28;20424;-60
2023/11/05 00:28:42;;;;;;;10.32;3.45;;;28.40;25.70;;;;;;4969073;28;21066;-59
2023/11/05 00:31:09;;;;;;;6.05;3.47;;;28.20;26.20;;;;;;4969740;28;20086;-60
2023/11/05 00:33:36;;;;;;;11.00;3.88;;;28.00;26.50;;;;;;4969030;28;20052;-59
2023/11/05 00:36:03;;;;;;;10.90;3.60;;;27.70;26.80;;;;;;4967340;28;20063;-59
2023/11/05 00:38:29;;;;;;;9.52;3.63;;;27.50;27.00;;;;;;4968794;28;20079;-61
2023/11/05 00:40:55;;;;;;;8.35;3.70;;;27.30;27.50;;;;;;4970167;28;20066;-60
2023/11/05 00:43:22;;;;;;;14.00;4.53;;;27.10;27.80;;;;;;4968896;28;20061;-61
2023/11/05 00:45:48;;;;;;;16.40;4.97;;;26.90;28.10;;;;;;4969453;28;20137;-60
2023/11/05 00:48:15;;;;;;;14.52;5.75;;;26.70;28.30;;;;;;4968603;28;20135;-61
2023/11/05 00:50:41;;;;;;;19.85;5.32;;;26.50;28.40;;;;;;4969551;28;20080;-61
2023/11/05 00:53:08;;;;;;;13.85;5.88;;;26.30;28.30;;;;;;4969753;28;20612;-60
2023/11/05 00:55:34;;;;;;;21.10;6.38;;;26.10;28.50;;;;;;4969141;28;20077;-60
2023/11/05 00:58:01;;;;;;;21.00;5.53;;;26.00;28.70;;;;;;4967544;28;20069;-59
2023/11/05 01:00:27;;;;;;;20.08;5.60;;;25.90;28.80;;;;;;4969607;28;20065;-60
2023/11/05 01:02:53;;;;;;;22.13;5.82;;;25.70;28.90;;;;;;4969240;28;20156;-57
2023/11/05 01:05:20;;;;;;;17.10;5.20;;;25.50;28.90;;;;;;4968980;28;20541;-60
2023/11/05 01:07:46;;;;;;;23.48;5.60;;;25.40;29.20;;;;;;4970559;28;20162;-60
2023/11/05 01:10:13;;;;;;;22.95;6.25;;;25.20;29.40;;;;;;4969149;28;20120;-58
2023/11/05 01:12:39;;;;;;;27.65;7.18;;;25.10;30.00;;;;;;4968571;28;20067;-61
2023/11/05 01:15:06;;;;;;;23.83;6.22;;;25.00;30.00;;;;;;4969247;28;20070;-64
2023/11/05 01:17:33;;;;;;;37.25;6.13;;;24.90;30.30;;;;;;4969236;28;20555;-60
2023/11/05 01:19:59;;;;;;;17.83;5.78;;;24.80;30.50;;;;;;4966994;28;20072;-61
2023/11/05 01:22:26;;;;;;;15.90;5.63;;;24.60;30.60;;;;;;4967066;28;20077;-61
2023/11/05 01:24:52;;;;;;;23.90;6.15;;;24.50;30.60;;;;;;4967910;28;20069;-61
2023/11/05 01:27:18;;;;;;;18.50;5.50;;;24.30;30.50;;;;;;4968338;28;20092;-61
2023/11/05 01:29:45;;;;;;;23.73;5.60;;;24.20;30.40;;;;;;4968667;28;20599;-60
2023/11/05 01:32:12;;;;;;;32.65;6.22;;;24.00;30.80;;;;;;4968967;28;20454;-59
2023/11/05 01:34:38;;;;;;;22.48;6.15;;;24.00;30.80;;;;;;4968303;28;20095;-61
2023/11/05 01:37:05;;;;;;;23.20;5.93;;;23.90;31.10;;;;;;4967304;28;20536;-61
2023/11/05 01:39:32;;;;;;;20.50;5.32;;;23.80;31.30;;;;;;4968378;28;20171;-62
2023/11/05 01:41:58;;;;;;;19.10;6.18;;;23.80;31.30;;;;;;4968031;28;20608;-62
2023/11/05 01:44:24;;;;;;;36.72;7.05;;;23.70;31.70;;;;;;4969788;28;20137;-61
2023/11/05 01:46:52;;;;;;;22.48;7.20;;;23.60;31.80;;;;;;4969725;28;20069;-61
2023/11/05 01:49:18;;;;;;;31.17;7.60;;;23.50;32.20;;;;;;4969853;28;20524;-60
2023/11/05 01:51:46;;;;;;;33.00;9.07;;;23.40;32.40;;;;;;4963875;28;20074;-60
2023/11/05 01:54:13;;;;;;;31.48;10.65;;;23.30;32.60;;;;;;4967325;28;20085;-60
2023/11/05 01:56:40;;;;;;;37.67;11.35;;;23.20;32.30;;;;;;4969389;28;20082;-61
2023/11/05 01:59:06;;;;;;;45.33;12.10;;;23.20;32.20;;;;;;4968031;28;20558;-60
2023/11/05 02:01:33;;;;;;;54.55;12.82;;;23.10;32.50;;;;;;4973178;28;20089;-59
2023/11/05 02:04:00;;;;;;;47.58;13.45;;;23.00;33.00;;;;;;4970340;28;20081;-58
2023/11/05 02:06:26;;;;;;;50.03;14.07;;;23.00;33.50;;;;;;4972713;28;20079;-61
2023/11/05 02:08:53;;;;;;;45.30;14.27;;;22.90;33.80;;;;;;4969911;28;20080;-61
2023/11/05 02:11:19;;;;;;;56.05;16.40;;;22.80;33.90;;;;;;4972195;28;20078;-60
2023/11/05 02:13:54;;;;;;;69.57;16.15;;;22.80;34.40;;;;;;4973694;28;20078;-61
2023/11/05 02:16:24;;;;;;;52.05;15.02;;;22.70;34.50;;;;;;4973128;28;20086;-60
2023/11/05 02:18:52;;;;;;;70.25;17.10;;;22.60;35.00;;;;;;4970262;28;20588;-61
2023/11/05 02:21:34;;;;;;;53.90;16.08;;;22.50;35.20;;;;;;4973020;28;20165;-62
2023/11/05 02:24:01;;;;;;;63.88;17.58;;;22.50;34.90;;;;;;4971565;28;20073;-61
2023/11/05 02:26:27;;;;;;;69.15;17.15;;;22.40;35.10;;;;;;4971583;28;20149;-60
2023/11/05 02:28:56;;;;;;;76.07;18.63;;;22.40;35.10;;;;;;4970640;28;20114;-61
2023/11/05 02:31:22;;;;;;;68.88;18.67;;;22.30;35.00;;;;;;4970271;28;20086;-61
2023/11/05 02:33:49;;;;;;;56.75;16.92;;;22.30;34.90;;;;;;4970871;28;20075;-60
2023/11/05 02:36:19;;;;;;;70.95;16.20;;;22.30;34.80;;;;;;4970672;28;20082;-61
2023/11/05 02:38:46;;;;;;;60.85;16.40;;;22.20;34.90;;;;;;4971444;28;20090;-60
2023/11/05 02:41:13;;;;;;;68.18;17.73;;;22.20;35.10;;;;;;4970736;28;20085;-60
2023/11/05 02:43:40;;;;;;;59.67;19.67;;;22.10;35.30;;;;;;4970336;28;20069;-62
2023/11/05 02:46:09;;;;;;;66.13;18.95;;;22.10;35.30;;;;;;4971070;28;20075;-66
2023/11/05 02:48:35;;;;;;;70.00;19.67;;;22.10;35.40;;;;;;4968498;28;20436;-61
2023/11/05 02:51:02;;;;;;;76.90;20.17;;;22.00;35.40;;;;;;4970134;28;20439;-62
2023/11/05 02:53:28;;;;;;;83.05;21.52;;;21.90;35.60;;;;;;4968400;28;20166;-61
2023/11/05 02:55:55;;;;;;;77.80;21.27;;;21.90;36.10;;;;;;4969343;28;20151;-61
2023/11/05 02:58:22;;;;;;;79.18;23.98;;;21.90;36.90;;;;;;4968175;28;21342;-63
2023/11/05 03:00:49;;;;;;;100.50;24.17;;;21.80;36.60;;;;;;4968965;28;20082;-61
2023/11/05 03:03:15;;;;;;;96.45;24.45;;;21.80;36.80;;;;;;4969615;28;20126;-62
2023/11/05 03:05:43;;;;;;;86.78;24.15;;;21.80;36.90;;;;;;4968757;28;20100;-60
2023/11/05 03:08:11;;;;;;;92.82;24.13;;;21.80;37.00;;;;;;4968726;28;20502;-61
2023/11/05 03:10:39;;;;;;;91.10;25.52;;;21.80;38.00;;;;;;4969961;28;20077;-61
2023/11/05 03:13:06;;;;;;;83.93;25.98;;;21.70;37.70;;;;;;4969854;28;20443;-63
2023/11/05 03:15:32;;;;;;;90.57;27.42;;;21.60;37.60;;;;;;4969032;28;20169;-61
2023/11/05 03:17:59;;;;;;;101.90;27.48;;;21.60;37.30;;;;;;4970262;28;20075;-60
2023/11/05 03:20:26;;;;;;;119.10;27.40;;;21.50;38.60;;;;;;4967049;28;20110;-62
2023/11/05 03:22:52;;;;;;;86.57;27.75;;;21.50;38.40;;;;;;4969660;28;20435;-59
2023/11/05 03:25:19;;;;;;;98.75;27.35;;;21.50;38.50;;;;;;4973292;28;20435;-58
2023/11/05 03:27:45;;;;;;;102.25;27.92;;;21.40;38.60;;;;;;4974885;28;20160;-60
2023/11/05 03:30:12;;;;;;;97.97;28.27;;;21.40;39.50;;;;;;4973341;28;20126;-58
2023/11/05 03:32:40;;;;;;;104.68;27.27;;;21.40;39.40;;;;;;4973160;28;20112;-61
2023/11/05 03:35:08;;;;;;;108.38;27.17;;;21.30;39.70;;;;;;4971155;28;20494;-60
2023/11/05 03:37:34;;;;;;;106.40;28.85;;;21.30;39.20;;;;;;4971780;28;20087;-59
2023/11/05 03:40:01;;;;;;;91.78;27.75;;;21.20;40.00;;;;;;4971687;28;20103;-60
2023/11/05 03:42:27;;;;;;;128.35;30.30;;;21.20;40.30;;;;;;4971689;28;20166;-61
2023/11/05 03:44:54;;;;;;;116.13;31.17;;;21.10;39.30;;;;;;4972058;28;20106;-59
2023/11/05 03:47:21;;;;;;;106.22;31.15;;;21.10;39.40;;;;;;4972687;28;20771;-62
2023/11/05 03:49:47;;;;;;;109.63;33.50;;;21.10;39.10;;;;;;4970866;28;20074;-61
2023/11/05 03:52:14;;;;;;;125.63;35.53;;;21.00;39.20;;;;;;4973753;28;20460;-59
2023/11/05 03:54:40;;;;;;;98.65;35.58;;;21.00;40.30;;;;;;4964763;28;20589;-59
2023/11/05 03:57:07;;;;;;;120.70;39.83;;;21.00;40.10;;;;;;4969229;28;20140;-58
2023/11/05 03:59:33;;;;;;;138.70;41.40;;;20.90;39.70;;;;;;4969297;28;20090;-60
2023/11/05 04:02:00;;;;;;;156.35;43.17;;;20.90;39.80;;;;;;4969062;28;20073;-61
2023/11/05 04:04:27;;;;;;;143.95;42.25;;;20.80;40.50;;;;;;4969033;28;20587;-61
2023/11/05 04:06:54;;;;;;;127.70;42.72;;;20.80;40.30;;;;;;4969814;28;20075;-62
2023/11/05 04:09:22;;;;;;;144.68;43.10;;;20.70;40.50;;;;;;4969185;28;20101;-62
2023/11/05 04:11:49;;;;;;;125.05;40.42;;;20.70;40.80;;;;;;4969401;28;20543;-62
2023/11/05 04:14:15;;;;;;;130.38;41.63;;;20.60;40.70;;;;;;4969245;28;20079;-61
2023/11/05 04:16:42;;;;;;;129.60;40.03;;;20.60;40.80;;;;;;4970259;28;20094;-57
2023/11/05 04:19:10;;;;;;;120.72;41.85;;;20.60;40.80;;;;;;4969947;28;20095;-62
2023/11/05 04:21:37;;;;;;;117.70;40.17;;;20.50;40.90;;;;;;4969337;28;20090;-57
2023/11/05 04:24:03;;;;;;;138.00;42.42;;;20.50;41.10;;;;;;4969557;28;20524;-59
2023/11/05 04:26:30;;;;;;;142.32;42.75;;;20.40;40.60;;;;;;4969174;28;20087;-59
2023/11/05 04:28:56;;;;;;;114.82;39.58;;;20.40;41.20;;;;;;4974532;28;20099;-59
2023/11/05 04:31:23;;;;;;;115.60;38.65;;;20.30;41.60;;;;;;4969555;28;20184;-63
2023/11/05 04:33:51;;;;;;;122.82;38.92;;;20.30;41.80;;;;;;4968860;28;20083;-58
2023/11/05 04:36:18;;;;;;;137.85;40.42;;;20.30;41.70;;;;;;4969445;28;20078;-60
2023/11/05 04:38:45;;;;;;;132.95;38.92;;;20.20;41.90;;;;;;4968837;28;20091;-61
2023/11/05 04:41:11;;;;;;;136.88;39.95;;;20.20;41.80;;;;;;4969160;28;20074;-60
2023/11/05 04:43:38;;;;;;;136.98;40.20;;;20.10;42.10;;;;;;4969493;28;20070;-60
2023/11/05 04:46:04;;;;;;;134.68;38.70;;;20.10;42.20;;;;;;4969168;28;20090;-62
2023/11/05 04:48:30;;;;;;;121.65;39.97;;;20.00;42.30;;;;;;4967785;28;20141;-60
2023/11/05 04:50:57;;;;;;;127.72;40.03;;;20.00;42.40;;;;;;4969255;28;20571;-59
2023/11/05 04:53:24;;;;;;;127.32;37.72;;;20.00;43.10;;;;;;4966582;28;20094;-60
2023/11/05 04:55:50;;;;;;;135.25;38.55;;;20.00;43.10;;;;;;4969098;28;20073;-61
2023/11/05 04:58:17;;;;;;;145.05;38.08;;;19.90;43.40;;;;;;4969076;28;20136;-62
2023/11/05 05:00:43;;;;;;;125.93;38.80;;;19.90;43.80;;;;;;4968398;28;20079;-60
2023/11/05 05:03:10;;;;;;;110.00;36.58;;;19.90;43.50;;;;;;4968070;28;20089;-60
2023/11/05 05:05:36;;;;;;;105.25;35.88;;;19.80;43.50;;;;;;4969193;28;20455;-62
2023/11/05 05:08:03;;;;;;;108.68;35.30;;;19.80;43.50;;;;;;4969020;28;20098;-61
2023/11/05 05:10:29;;;;;;;98.22;33.78;;;19.70;43.30;;;;;;4969275;28;20079;-62
2023/11/05 05:12:56;;;;;;;105.85;34.78;;;19.70;43.50;;;;;;4968699;28;20081;-61
2023/11/05 05:15:22;;;;;;;98.72;32.00;;;19.60;43.80;;;;;;4968531;28;20087;-61
2023/11/05 05:17:49;;;;;;;90.05;31.33;;;19.60;43.30;;;;;;4971704;28;20087;-61
2023/11/05 05:20:15;;;;;;;93.53;32.95;;;19.60;43.80;;;;;;4968689;28;20185;-61
2023/11/05 05:22:42;;;;;;;91.63;33.08;;;19.60;44.60;;;;;;4967932;28;20086;-60
2023/11/05 05:25:08;;;;;;;103.50;34.97;;;19.50;44.50;;;;;;4967050;28;20153;-61
2023/11/05 05:27:35;;;;;;;130.52;37.22;;;19.40;44.50;;;;;;4967953;28;20536;-58
2023/11/05 05:30:01;;;;;;;111.45;38.60;;;19.50;44.50;;;;;;4967900;28;20084;-60
2023/11/05 05:32:27;;;;;;;98.95;35.55;;;19.40;44.50;;;;;;4968646;28;20078;-58
2023/11/05 05:34:54;;;;;;;104.72;37.53;;;19.40;44.60;;;;;;4971166;28;20083;-61
2023/11/05 05:37:20;;;;;;;117.65;39.88;;;19.40;44.60;;;;;;4972739;28;21298;-61
2023/11/05 05:39:48;;;;;;;118.53;40.63;;;19.40;44.70;;;;;;4971968;28;20579;-59
2023/11/05 05:42:15;;;;;;;108.10;38.80;;;19.30;45.00;;;;;;4971610;28;20197;-63
2023/11/05 05:44:41;;;;;;;104.32;42.30;;;19.30;45.00;;;;;;4973051;28;20075;-61
2023/11/05 05:47:08;;;;;;;113.00;39.17;;;19.20;45.20;;;;;;4971719;28;20181;-60
2023/11/05 05:49:35;;;;;;;107.40;39.10;;;19.30;45.20;;;;;;4972518;28;20170;-59
2023/11/05 05:52:03;;;;;;;114.85;39.50;;;19.20;45.30;;;;;;4972453;28;20091;-59
2023/11/05 05:54:30;;;;;;;124.28;41.50;;;19.10;45.40;;;;;;4972156;28;20080;-60
2023/11/05 05:56:56;;;;;;;105.70;41.83;;;19.10;45.40;;;;;;4972979;28;20106;-61
2023/11/05 05:59:23;;;;;;;115.88;41.90;;;19.10;46.00;;;;;;4971464;28;20151;-60
2023/11/05 06:01:49;;;;;;;108.93;42.08;;;19.10;46.00;;;;;;4970633;28;20075;-59
2023/11/05 06:04:16;;;;;;;122.80;42.13;;;19.00;45.60;;;;;;4971781;28;20078;-62
2023/11/05 06:06:42;;;;;;;126.32;41.33;;;19.00;45.80;;;;;;4971665;28;20555;-59
2023/11/05 06:09:12;;;;;;;113.10;41.42;;;19.00;47.00;;;;;;4971551;28;20094;-58
2023/11/05 06:11:39;;;;;;;102.97;37.15;;;18.90;46.70;;;;;;4971615;28;20173;-60
2023/11/05 06:14:05;;;;;;;100.47;37.90;;;18.90;46.90;;;;;;4970136;28;20146;-59
2023/11/05 06:16:32;;;;;;;108.10;38.40;;;18.90;47.00;;;;;;4971506;28;20456;-61
2023/11/05 06:18:58;;;;;;;104.93;38.50;;;18.80;47.20;;;;;;4974525;28;20572;-62
2023/11/05 06:21:25;;;;;;;101.75;39.70;;;18.80;47.80;;;;;;4971698;28;20080;-61
2023/11/05 06:23:51;;;;;;;118.18;40.17;;;18.80;47.20;;;;;;4970807;28;20570;-62
2023/11/05 06:26:18;;;;;;;101.88;40.90;;;18.70;46.90;;;;;;4971061;28;20170;-61
2023/11/05 06:28:44;;;;;;;108.82;40.38;;;18.70;47.10;;;;;;4971225;28;20100;-61
2023/11/05 06:31:11;;;;;;;107.80;41.85;;;18.60;47.50;;;;;;4968344;28;20452;-61
2023/11/05 06:33:38;;;;;;;173.80;42.15;;;18.60;47.70;;;;;;4970617;28;20088;-59
2023/11/05 06:36:04;;;;;;;149.65;44.10;;;18.60;47.80;;;;;;4970972;28;20114;-59
2023/11/05 06:38:31;;;;;;;125.47;42.15;;;18.60;47.60;;;;;;4970407;28;20095;-59
2023/11/05 06:40:58;;;;;;;119.63;42.13;;;18.60;47.40;;;;;;4969383;28;20151;-61
2023/11/05 06:43:25;;;;;;;124.43;46.38;;;18.60;47.40;;;;;;4971868;28;20134;-62
2023/11/05 06:45:52;;;;;;;118.30;49.83;;;18.60;47.20;;;;;;4969685;28;20106;-62
2023/11/05 06:48:19;;;;;;;129.27;48.40;;;18.50;46.70;;;;;;4969625;28;20165;-61
2023/11/05 06:50:46;;;;;;;112.00;45.47;;;18.50;47.40;;;;;;4969678;28;20067;-61
2023/11/05 06:53:13;;;;;;;121.13;46.03;;;18.40;47.70;;;;;;4970347;28;20106;-60
2023/11/05 06:55:39;;;;;;;121.63;46.40;;;18.40;47.50;;;;;;4970145;28;20085;-59
2023/11/05 06:58:06;;;;;;;143.90;46.72;;;18.40;47.70;;;;;;4970400;28;20523;-62
2023/11/05 07:00:32;;;;;;;115.50;45.92;;;18.40;48.10;;;;;;4970581;28;20134;-58
2023/11/05 07:02:59;;;;;;;108.13;45.15;;;18.40;48.10;;;;;;4970518;28;20121;-60
2023/11/05 07:05:25;;;;;;;98.18;40.70;;;18.30;48.10;;;;;;4970413;28;20072;-61
2023/11/05 07:07:53;;;;;;;109.93;42.30;;;18.30;49.10;;;;;;4968969;28;20092;-61
2023/11/05 07:10:20;;;;;;;116.10;42.88;;;18.20;49.30;;;;;;4970672;28;20086;-62
2023/11/05 07:12:46;;;;;;;112.70;42.28;;;18.20;49.00;;;;;;4970547;28;20092;-60
2023/11/05 07:15:13;;;;;;;97.57;40.65;;;18.10;49.30;;;;;;4969586;28;20081;-61
2023/11/05 07:17:40;;;;;;;102.53;38.42;;;18.10;49.10;;;;;;4970699;28;20074;-59
2023/11/05 07:20:12;;;;;;;95.10;38.90;;;18.00;48.90;;;;;;4971806;28;20090;-60
2023/11/05 07:22:39;;;;;;;88.13;35.63;;;18.00;48.90;;;;;;4970006;28;20079;-59
2023/11/05 07:25:08;;;;;;;102.47;37.45;;;18.00;49.20;;;;;;4969941;28;20088;-60
2023/11/05 07:27:36;;;;;;;95.25;35.53;;;17.90;49.70;;;;;;4968498;28;20085;-59
2023/11/05 07:30:03;;;;;;;76.18;33.67;;;17.80;50.60;;;;;;4969304;28;20594;-59
2023/11/05 07:32:30;;;;;;;97.82;33.33;;;17.90;50.70;;;;;;4969881;28;20119;-59
2023/11/05 07:34:57;;;;;;;78.85;33.35;;;17.80;50.30;;;;;;4970164;28;20077;-60
2023/11/05 07:37:27;;;;;;;91.65;32.40;;;17.80;50.30;;;;;;4970327;28;20432;-60
2023/11/05 07:39:54;;;;;;;75.68;31.85;;;17.80;50.70;;;;;;4969699;28;20093;-60
2023/11/05 07:42:21;;;;;;;87.57;31.85;;;17.80;50.80;;;;;;4969815;28;20076;-60
2023/11/05 07:44:47;;;;;;;67.28;30.45;;;17.80;50.90;;;;;;4969689;28;20078;-61
2023/11/05 07:47:15;;;;;;;77.93;30.38;;;17.70;51.10;;;;;;4970138;28;20139;-60
2023/11/05 07:49:41;;;;;;;71.28;29.13;;;17.70;51.00;;;;;;4970252;28;20091;-60
2023/11/05 07:52:08;;;;;;;74.75;28.63;;;17.60;50.70;;;;;;4969893;28;20158;-61
2023/11/05 07:54:35;;;;;;;68.30;28.52;;;17.60;50.80;;;;;;4969759;28;20084;-60
2023/11/05 07:57:02;;;;;;;73.25;26.58;;;17.60;50.80;;;;;;4968359;28;20094;-59
2023/11/05 07:59:28;;;;;;;78.60;27.05;;;17.60;50.60;;;;;;4968469;28;20191;-60
2023/11/05 08:01:55;;;;;;;69.65;26.15;;;17.60;50.90;;;;;;4969789;28;20077;-60
2023/11/05 08:04:21;;;;;;;61.45;27.75;;;17.60;50.70;;;;;;4969884;28;20175;-60
2023/11/05 08:06:47;;;;;;;73.78;29.33;;;17.50;50.40;;;;;;4969439;28;20087;-60
2023/11/05 08:09:14;;;;;;;79.80;28.65;;;17.40;51.40;;;;;;4969579;28;20168;-60
2023/11/05 08:11:43;;;;;;;59.40;26.30;;;17.40;51.40;;;;;;4967816;28;20086;-59
2023/11/05 08:14:10;;;;;;;67.50;27.38;;;17.40;51.50;;;;;;4968072;28;20100;-58
2023/11/05 08:16:37;;;;;;;70.07;28.45;;;17.30;52.70;;;;;;4969835;28;20108;-60
2023/11/05 08:19:04;;;;;;;79.25;29.77;;;17.30;52.60;;;;;;4969448;28;20093;-60
2023/11/05 08:21:30;;;;;;;102.53;33.45;;;17.30;51.90;;;;;;4969151;28;20081;-61
2023/11/05 08:23:57;;;;;;;99.50;37.08;;;17.20;51.60;;;;;;4969350;28;20147;-61
2023/11/05 08:26:24;;;;;;;145.65;45.40;;;17.20;51.90;;;;;;4969564;28;20411;-61
2023/11/05 08:28:51;;;;;;;117.22;44.95;;;17.20;51.80;;;;;;4968225;28;20192;-59
2023/11/05 08:31:17;;;;;;;129.38;49.95;;;17.30;51.70;;;;;;4968973;28;20219;-59
2023/11/05 08:33:44;;;;;;;137.60;52.65;;;17.20;51.80;;;;;;4969340;28;20176;-63
2023/11/05 08:36:10;;;;;;;159.68;58.10;;;17.30;52.30;;;;;;4970141;28;20073;-62
2023/11/05 08:38:38;;;;;;;113.90;49.58;;;17.30;52.10;;;;;;4969436;28;20194;-60
2023/11/05 08:41:05;;;;;;;119.45;51.85;;;17.30;51.40;;;;;;4969162;28;20168;-60
2023/11/05 08:43:31;;;;;;;117.95;46.13;;;17.30;50.70;;;;;;4969199;28;20081;-61
2023/11/05 08:45:57;;;;;;;87.03;37.83;;;17.30;50.20;;;;;;4969555;28;20119;-61
2023/11/05 08:48:24;;;;;;;91.22;33.10;;;17.40;47.40;;;;;;4968932;28;20076;-60
2023/11/05 08:50:50;;;;;;;75.00;31.75;;;17.40;45.20;;;;;;4969161;28;20615;-61
2023/11/05 08:53:19;;;;;;;67.05;24.00;;;17.40;44.60;;;;;;4968733;28;20120;-61
2023/11/05 08:55:45;;;;;;;63.25;23.70;;;17.50;42.70;;;;;;4969199;28;20510;-61
2023/11/05 08:58:13;;;;;;;49.47;19.30;;;17.60;42.30;;;;;;4968642;28;20448;-61
2023/11/05 09:00:40;;;;;;;51.08;17.20;;;17.60;40.80;;;;;;4969063;28;20471;-60
2023/11/05 09:03:07;;;;;;;43.42;13.75;;;17.70;40.10;;;;;;4968962;28;20083;-60
2023/11/05 09:05:33;;;;;;;36.25;9.30;;;17.70;38.30;;;;;;4969995;28;20077;-60
2023/11/05 09:08:00;;;;;;;29.38;7.65;;;17.80;36.00;;;;;;4968936;28;20452;-59
2023/11/05 09:10:26;;;;;;;27.90;6.60;;;18.00;33.90;;;;;;4973444;28;20400;-60
2023/11/05 09:12:54;;;;;;;17.88;5.68;;;18.10;33.50;;;;;;4972625;28;20181;-61
2023/11/05 09:15:22;;;;;;;22.83;5.63;;;18.20;32.90;;;;;;4973349;28;20582;-61
2023/11/05 09:17:48;;;;;;;22.23;5.18;;;18.20;33.20;;;;;;4972763;28;20092;-61
2023/11/05 09:20:15;;;;;;;19.73;5.28;;;18.20;33.80;;;;;;4972826;28;20092;-62
2023/11/05 09:22:42;;;;;;;18.67;4.90;;;18.20;34.40;;;;;;4971937;28;20083;-60
2023/11/05 09:25:09;;;;;;;16.88;4.75;;;18.20;35.00;;;;;;4971625;28;20085;-61
2023/11/05 09:27:39;;;;;;;24.55;4.65;;;18.20;33.40;;;;;;4971758;28;20107;-60
2023/11/05 09:30:14;;;;;;;23.50;5.05;;;18.30;33.60;;;;;;4973524;28;20536;-60
2023/11/05 09:32:45;;;;;;;14.68;4.20;;;18.20;34.90;;;;;;4972476;28;20106;-59
2023/11/05 09:35:13;;;;;;;25.73;5.32;;;18.20;35.20;;;;;;4973226;28;20087;-60
2023/11/05 09:37:41;;;;;;;30.30;6.72;;;18.20;34.10;;;;;;4971077;28;20091;-59
2023/11/05 09:40:08;;;;;;;27.75;7.70;;;18.10;34.10;;;;;;4972257;28;20103;-60
2023/11/05 09:42:43;;;;;;;29.50;6.97;;;18.10;34.00;;;;;;4972243;28;20179;-61
2023/11/05 09:45:12;;;;;;;36.70;8.07;;;18.00;34.30;;;;;;4970703;28;20495;-59
2023/11/05 09:47:40;;;;;;;50.13;8.27;;;18.00;34.80;;;;;;4972226;28;20141;-61
2023/11/05 09:50:12;;;;;;;29.63;7.75;;;18.00;35.20;;;;;;4972247;28;20083;-62
2023/11/05 09:52:41;;;;;;;26.85;7.78;;;18.00;35.30;;;;;;4972251;28;20083;-60
2023/11/05 09:55:09;;;;;;;29.00;6.68;;;18.00;35.80;;;;;;4972412;28;20073;-58
2023/11/05 09:57:36;;;;;;;27.85;7.72;;;17.90;36.30;;;;;;4971501;28;20082;-60
2023/11/05 10:00:08;;;;;;;23.27;7.10;;;17.90;36.30;;;;;;4972483;28;20095;-60
2023/11/05 10:02:57;;;;;;;30.95;7.45;;;17.90;37.20;;;;;;4971764;28;20089;-61
2023/11/05 10:05:25;;;;;;;31.67;6.63;;;17.70;36.30;;;;;;4972141;28;20150;-61
2023/11/05 10:07:53;;;;;;;30.35;7.20;;;17.70;36.60;;;;;;4970648;28;20092;-61
2023/11/05 10:10:20;;;;;;;34.75;7.75;;;17.60;36.50;;;;;;4972322;28;20077;-61
2023/11/05 10:12:47;;;;;;;28.65;7.20;;;17.60;36.30;;;;;;4971884;28;20087;-59
2023/11/05 10:15:14;;;;;;;31.02;7.35;;;17.60;36.30;;;;;;4971432;28;20088;-62
2023/11/05 10:17:41;;;;;;;25.83;6.43;;;17.50;37.70;;;;;;4972051;28;20175;-60
2023/11/05 10:20:10;;;;;;;22.27;6.72;;;17.50;38.40;;;;;;4970977;28;20401;-59
2023/11/05 10:22:45;;;;;;;26.90;6.70;;;17.40;38.20;;;;;;4969919;28;20120;-57
2023/11/05 10:25:24;;;;;;;30.45;7.40;;;17.30;37.90;;;;;;4972474;28;20541;-61
2023/11/05 10:27:54;;;;;;;35.70;8.05;;;17.30;38.70;;;;;;4970800;28;20088;-59
2023/11/05 10:30:22;;;;;;;31.55;8.25;;;17.10;39.30;;;;;;4971408;28;20108;-60
2023/11/05 10:32:49;;;;;;;31.05;7.07;;;17.10;39.10;;;;;;4972717;28;20204;-60
2023/11/05 10:35:27;;;;;;;33.30;7.80;;;17.00;38.60;;;;;;4972218;28;20169;-61
2023/11/05 10:37:56;;;;;;;27.20;6.93;;;17.00;38.80;;;;;;4970863;28;20508;-59
2023/11/05 10:40:23;;;;;;;25.08;6.57;;;16.90;38.80;;;;;;4969988;28;20097;-61
2023/11/05 10:42:50;;;;;;;20.50;6.95;;;16.90;39.30;;;;;;4970894;28;20080;-59
2023/11/05 10:45:18;;;;;;;35.40;7.88;;;16.90;40.80;;;;;;4970780;28;20077;-58
2023/11/05 10:47:46;;;;;;;41.92;7.75;;;16.80;40.40;;;;;;4971323;28;20079;-60
2023/11/05 10:50:16;;;;;;;20.13;6.72;;;16.80;40.70;;;;;;4971362;28;20107;-60
2023/11/05 10:52:45;;;;;;;19.13;7.18;;;16.70;40.50;;;;;;4969932;28;20553;-61
2023/11/05 10:55:12;;;;;;;26.23;7.53;;;16.70;40.20;;;;;;4971303;28;20143;-61
2023/11/05 10:57:43;;;;;;;16.27;6.47;;;16.60;40.70;;;;;;4970791;28;20231;-60
2023/11/05 11:00:27;;;;;;;25.65;7.10;;;16.50;41.10;;;;;;4971223;28;20172;-61
2023/11/05 11:03:01;;;;;;;29.35;8.45;;;16.50;41.80;;;;;;4970765;28;20088;-62
2023/11/05 11:05:43;;;;;;;28.13;7.45;;;16.30;42.00;;;;;;4970966;28;20081;-61
2023/11/05 11:08:15;;;;;;;30.40;7.95;;;16.30;42.30;;;;;;4969961;28;20077;-61
2023/11/05 11:10:45;;;;;;;24.83;7.63;;;16.30;42.00;;;;;;4970688;28;20077;-61
2023/11/05 11:13:28;;;;;;;15.07;7.40;;;16.30;42.00;;;;;;4970578;28;20588;-61
2023/11/05 11:15:55;;;;;;;23.25;7.65;;;16.10;42.10;;;;;;4970280;28;20159;-63
2023/11/05 11:18:27;;;;;;;27.77;8.18;;;16.10;42.30;;;;;;4969148;28;20082;-59
2023/11/05 11:20:57;;;;;;;26.33;8.32;;;16.10;42.10;;;;;;4970589;28;20073;-61
2023/11/05 11:23:28;;;;;;;31.10;8.82;;;16.20;42.30;;;;;;4970368;28;20453;-62
2023/11/05 11:25:57;;;;;;;33.30;10.15;;;16.30;42.10;;;;;;4967546;28;20077;-62
2023/11/05 11:28:24;;;;;;;41.83;10.93;;;16.30;41.30;;;;;;4970318;28;20561;-60
2023/11/05 11:30:51;;;;;;;50.85;11.32;;;16.40;41.60;;;;;;4970421;28;20561;-59
2023/11/05 11:33:22;;;;;;;40.22;11.52;;;16.30;41.30;;;;;;4970155;28;20073;-60
2023/11/05 11:35:49;;;;;;;44.67;13.07;;;16.20;41.30;;;;;;4970659;28;20069;-58
2023/11/05 11:38:16;;;;;;;58.40;14.52;;;16.30;41.70;;;;;;4970214;28;20226;-61
2023/11/05 11:40:57;;;;;;;66.00;16.38;;;16.30;41.40;;;;;;4970409;28;20079;-59
2023/11/05 11:43:24;;;;;;;59.17;16.48;;;16.30;41.40;;;;;;4970063;28;20076;-58
2023/11/05 11:45:52;;;;;;;64.63;16.30;;;16.30;42.40;;;;;;4970125;28;20151;-60
2023/11/05 11:48:25;;;;;;;59.45;18.63;;;16.40;42.30;;;;;;4968688;28;20124;-59
2023/11/05 11:50:55;;;;;;;70.20;19.20;;;16.30;43.10;;;;;;4970639;28;20445;-60
2023/11/05 11:53:37;;;;;;;79.13;21.17;;;16.30;42.90;;;;;;4968503;28;20135;-58
2023/11/05 11:56:05;;;;;;;71.20;20.25;;;16.20;43.00;;;;;;4970155;28;20076;-57
2023/11/05 11:58:37;;;;;;;86.85;22.50;;;16.20;43.50;;;;;;4969358;28;20085;-61
2023/11/05 12:01:04;;;;;;;81.88;22.65;;;16.10;44.50;;;;;;4970438;28;20453;-60
2023/11/05 12:03:32;;;;;;;84.25;22.15;;;16.00;42.80;;;;;;4969230;28;20570;-60
2023/11/05 12:05:59;;;;;;;110.70;42.17;;;16.00;43.60;;;;;;4969355;28;20085;-61
2023/11/05 12:08:42;;;;;;;92.65;23.95;;;16.00;43.30;;;;;;4969036;28;20457;-59
2023/11/05 12:11:13;;;;;;;80.63;25.80;;;15.90;42.60;;;;;;4969918;28;20084;-61
2023/11/05 12:13:44;;;;;;;97.78;25.48;;;16.00;42.90;;;;;;4970208;28;20513;-61
2023/11/05 12:16:12;;;;;;;81.88;23.92;;;16.10;43.40;;;;;;4968717;28;20096;-61
2023/11/05 12:18:40;;;;;;;82.40;24.35;;;16.20;43.60;;;;;;4969691;28;20561;-61
2023/11/05 12:21:11;;;;;;;87.03;24.98;;;16.20;43.40;;;;;;4969910;28;20426;-61
2023/11/05 12:23:39;;;;;;;80.15;25.75;;;16.20;43.90;;;;;;4969627;28;20081;-61
2023/11/05 12:26:08;;;;;;;95.10;26.58;;;16.10;44.10;;;;;;4969735;28;20100;-60
2023/11/05 12:28:35;;;;;;;72.57;25.05;;;16.10;44.20;;;;;;4969686;28;20127;-60
2023/11/05 12:31:03;;;;;;;93.00;25.90;;;16.10;44.40;;;;;;4969978;28;20088;-59